Time;durP1;ratioP1;P1;durP2;ratioP2;P2;SDS_P1;SDS_P2;PMS_P1;PMS_P2;Temp;Humidity;BMP_temperature;BMP_pressure;BME280_temperature;BME280_humidity;BME280_pressure;Samples;Min_cycle;Max_cycle;Signal;HPM_P1;HPM_P2
2022/01/14 00:00:53;;;;;;;;;;;;;;;;;;2092550;28;19912;-78
2022/01/14 00:02:12;;;;;;;;;;;;;;;;;;2089745;28;20279;-78
2022/01/14 00:03:30;;;;;;;;;;;;;;;;;;2096836;28;19916;-78
2022/01/14 00:04:49;;;;;;;;;;;;;;;;;;2100079;28;20294;-79
2022/01/14 00:06:08;;;;;;;;;;;;;;;;;;2101396;28;19912;-79
2022/01/14 00:07:27;;;;;;;;;;;;;;;;;;2102368;28;19913;-78
2022/01/14 00:08:46;;;;;;;;;;;;;;;;;;2101882;28;19921;-78
2022/01/14 00:10:07;;;;;;;;;;;;;;;;;;2100442;28;20344;-78
2022/01/14 00:11:26;;;;;;;;;;;;;;;;;;2098115;28;19909;-79
2022/01/14 00:12:52;;;;;;;;;;;;;;;;;;2101388;28;20027;-79
2022/01/14 00:15:35;;;;;;;;;;;;;;;;;;2099824;28;20046;-78
2022/01/14 00:16:54;;;;;;;;;;;;;;;;;;2092149;28;19992;-78
2022/01/14 00:18:12;;;;;;;;;;;;;;;;;;2098343;28;19912;-79
2022/01/14 00:19:31;;;;;;;;;;;;;;;;;;2091717;28;19920;-79
2022/01/14 00:20:50;;;;;;;;;;;;;;;;;;2097973;28;19912;-79
2022/01/14 00:22:10;;;;;;;;;;;;;;;;;;2092146;28;19909;-78
2022/01/14 00:23:33;;;;;;;;;;;;;;;;;;2093879;28;19912;-78
2022/01/14 00:33:52;;;;;;;;;;;;;;;;;;2100752;28;20374;-76
2022/01/14 00:35:11;;;;;;;;;;;;;;;;;;2100081;28;19916;-76
2022/01/14 00:36:30;;;;;;;;;;;;;;;;;;2098884;28;19908;-76
2022/01/14 00:37:49;;;;;;;;;;;;;;;;;;2102984;28;20345;-76
2022/01/14 00:39:08;;;;;;;;;;;;;;;;;;2091903;28;20015;-76
2022/01/14 00:40:27;;;;;;;;;;;;;;;;;;2096583;28;19912;-75
2022/01/14 00:41:46;;;;;;;;;;;;;;;;;;2099967;28;19916;-75
2022/01/14 00:43:05;;;;;;;;;;;;;;;;;;2102503;28;19912;-79
2022/01/14 00:44:23;;;;;;;;;;;;;;;;;;2099352;28;19920;-78
2022/01/14 00:45:43;;;;;;;;;;;;;;;;;;2100744;28;19916;-78
2022/01/14 00:47:02;;;;;;;;;;;;;;;;;;2101073;28;20374;-78
2022/01/14 00:48:21;;;;;;;;;;;;;;;;;;2101641;28;19908;-77
2022/01/14 00:49:39;;;;;;;;;;;;;;;;;;2099958;28;19912;-78
2022/01/14 00:50:58;;;;;;;;;;;;;;;;;;2101882;28;19912;-78
2022/01/14 00:52:17;;;;;;;;;;;;;;;;;;2100806;28;19921;-78
2022/01/14 00:53:36;;;;;;;;;;;;;;;;;;2101064;28;19908;-78
2022/01/14 00:54:55;;;;;;;;;;;;;;;;;;2100154;28;19913;-78
2022/01/14 00:56:32;;;;;;;;;;;;;;;;;;2100590;28;19961;-77
2022/01/14 00:59:19;;;;;;;;;;;;;;;;;;2100943;28;19912;-77
2022/01/14 01:00:38;;;;;;;;;;;;;;;;;;2093068;28;19917;-78
2022/01/14 01:01:59;;;;;;;;;;;;;;;;;;2097537;28;19912;-78
2022/01/14 01:03:17;;;;;;;;;;;;;;;;;;2090983;28;19917;-77
2022/01/14 01:04:37;;;;;;;;;;;;;;;;;;2096400;28;19913;-78
2022/01/14 01:05:56;;;;;;;;;;;;;;;;;;2100314;28;20348;-78
2022/01/14 01:07:15;;;;;;;;;;;;;;;;;;2100690;28;19991;-75
2022/01/14 01:08:34;;;;;;;;;;;;;;;;;;2102110;28;19917;-78
2022/01/14 01:09:53;;;;;;;;;;;;;;;;;;2098942;28;19920;-78
2022/01/14 01:11:12;;;;;;;;;;;;;;;;;;2100657;28;19916;-76
2022/01/14 01:12:46;;;;;;;;;;;;;;;;;;2103179;28;19912;-78
2022/01/14 01:14:13;;;;;;;;;;;;;;;;;;2101404;28;19912;-78
2022/01/14 01:15:32;;;;;;;;;;;;;;;;;;2097707;28;19920;-77
2022/01/14 01:16:51;;;;;;;;;;;;;;;;;;2100725;28;20358;-78
2022/01/14 01:18:10;;;;;;;;;;;;;;;;;;2093468;28;19909;-77
2022/01/14 01:19:29;;;;;;;;;;;;;;;;;;2097396;28;19916;-77
2022/01/14 01:20:48;;;;;;;;;;;;;;;;;;2100143;28;19920;-78
2022/01/14 01:22:06;;;;;;;;;;;;;;;;;;2091888;28;19913;-77
2022/01/14 01:23:25;;;;;;;;;;;;;;;;;;2097109;28;19909;-78
2022/01/14 01:24:44;;;;;;;;;;;;;;;;;;2099551;28;19952;-77
2022/01/14 01:26:11;;;;;;;;;;;;;;;;;;2101081;28;20390;-77
2022/01/14 01:27:36;;;;;;;;;;;;;;;;;;2092000;28;19916;-78
2022/01/14 01:31:48;;;;;;;;;;;;;;;;;;2100955;28;19916;-78
2022/01/14 01:33:08;;;;;;;;;;;;;;;;;;2102121;28;19947;-77
2022/01/14 01:34:26;;;;;;;;;;;;;;;;;;2101345;28;19920;-78
2022/01/14 01:35:46;;;;;;;;;;;;;;;;;;2090882;28;19916;-78
2022/01/14 01:37:05;;;;;;;;;;;;;;;;;;2096489;28;20361;-77
2022/01/14 01:38:24;;;;;;;;;;;;;;;;;;2101704;28;20778;-78
2022/01/14 01:39:43;;;;;;;;;;;;;;;;;;2101870;28;19952;-77
2022/01/14 01:41:02;;;;;;;;;;;;;;;;;;2100704;28;19917;-78
2022/01/14 01:42:26;;;;;;;;;;;;;;;;;;2101798;28;19912;-78
2022/01/14 01:43:50;;;;;;;;;;;;;;;;;;2093168;28;19921;-78
2022/01/14 01:45:11;;;;;;;;;;;;;;;;;;2096828;28;19954;-78
2022/01/14 01:46:29;;;;;;;;;;;;;;;;;;2099824;28;20281;-75
2022/01/14 01:47:52;;;;;;;;;;;;;;;;;;2102045;28;19912;-73
2022/01/14 01:49:10;;;;;;;;;;;;;;;;;;2092481;28;19920;-75
2022/01/14 01:50:29;;;;;;;;;;;;;;;;;;2093714;28;19917;-75
2022/01/14 01:51:48;;;;;;;;;;;;;;;;;;2100113;28;20369;-74
2022/01/14 01:53:07;;;;;;;;;;;;;;;;;;2092828;28;19912;-73
2022/01/14 01:54:26;;;;;;;;;;;;;;;;;;2097218;28;19916;-74
2022/01/14 01:55:45;;;;;;;;;;;;;;;;;;2100200;28;20007;-75
2022/01/14 01:57:04;;;;;;;;;;;;;;;;;;2098829;28;19913;-75
2022/01/14 01:58:23;;;;;;;;;;;;;;;;;;2092310;28;19921;-75
2022/01/14 01:59:42;;;;;;;;;;;;;;;;;;2096777;28;19916;-75
2022/01/14 02:01:01;;;;;;;;;;;;;;;;;;2098134;28;19921;-78
2022/01/14 02:02:20;;;;;;;;;;;;;;;;;;2092425;28;19913;-77
2022/01/14 02:03:38;;;;;;;;;;;;;;;;;;2096050;28;20335;-76
2022/01/14 02:04:59;;;;;;;;;;;;;;;;;;2099375;28;19952;-76
2022/01/14 02:06:17;;;;;;;;;;;;;;;;;;2089769;28;19913;-76
2022/01/14 02:07:36;;;;;;;;;;;;;;;;;;2089273;28;19917;-76
2022/01/14 02:08:55;;;;;;;;;;;;;;;;;;2090472;28;20347;-76
2022/01/14 02:10:13;;;;;;;;;;;;;;;;;;2088588;28;19913;-76
2022/01/14 02:11:32;;;;;;;;;;;;;;;;;;2097797;28;19912;-76
2022/01/14 02:12:53;;;;;;;;;;;;;;;;;;2092300;28;19913;-76
2022/01/14 02:14:26;;;;;;;;;;;;;;;;;;2097938;28;19920;-76
2022/01/14 02:16:00;;;;;;;;;;;;;;;;;;2095984;28;19908;-74
2022/01/14 02:17:45;;;;;;;;;;;;;;;;;;2099526;28;20491;-73
2022/01/14 02:19:24;;;;;;;;;;;;;;;;;;2101038;28;19912;-73
2022/01/14 02:22:20;;;;;;;;;;;;;;;;;;2100410;28;19916;-72
2022/01/14 02:23:44;;;;;;;;;;;;;;;;;;2100391;28;19913;-73
2022/01/14 02:25:11;;;;;;;;;;;;;;;;;;2099834;28;19916;-73
2022/01/14 02:26:29;;;;;;;;;;;;;;;;;;2099094;28;19916;-72
2022/01/14 02:27:48;;;;;;;;;;;;;;;;;;2101362;28;20373;-73
2022/01/14 02:29:07;;;;;;;;;;;;;;;;;;2100444;28;19916;-73
2022/01/14 02:30:26;;;;;;;;;;;;;;;;;;2091939;28;19912;-74
2022/01/14 02:31:45;;;;;;;;;;;;;;;;;;2096520;28;19924;-73
2022/01/14 02:33:04;;;;;;;;;;;;;;;;;;2101692;28;19995;-73
2022/01/14 02:34:23;;;;;;;;;;;;;;;;;;2091597;28;19916;-74
2022/01/14 02:35:42;;;;;;;;;;;;;;;;;;2095030;28;19917;-75
2022/01/14 02:37:01;;;;;;;;;;;;;;;;;;2101438;28;19912;-74
2022/01/14 02:38:19;;;;;;;;;;;;;;;;;;2098169;28;20393;-74
2022/01/14 02:39:39;;;;;;;;;;;;;;;;;;2100253;28;19999;-75
2022/01/14 02:40:58;;;;;;;;;;;;;;;;;;2089714;28;20385;-74
2022/01/14 02:42:17;;;;;;;;;;;;;;;;;;2089784;28;19913;-75
2022/01/14 02:43:35;;;;;;;;;;;;;;;;;;2096280;28;20358;-74
2022/01/14 02:45:01;;;;;;;;;;;;;;;;;;2099725;28;20454;-74
2022/01/14 02:46:19;;;;;;;;;;;;;;;;;;2090231;28;20323;-75
2022/01/14 02:47:38;;;;;;;;;;;;;;;;;;2095863;28;19908;-75
2022/01/14 02:48:57;;;;;;;;;;;;;;;;;;2100715;28;19920;-75
2022/01/14 02:50:20;;;;;;;;;;;;;;;;;;2100101;28;19908;-75
2022/01/14 02:51:39;;;;;;;;;;;;;;;;;;2097897;28;19920;-75
2022/01/14 02:53:01;;;;;;;;;;;;;;;;;;2092189;28;19913;-75
2022/01/14 02:54:23;;;;;;;;;;;;;;;;;;2097805;28;19913;-74
2022/01/14 02:55:43;;;;;;;;;;;;;;;;;;2098948;28;19991;-75
2022/01/14 02:57:02;;;;;;;;;;;;;;;;;;2087693;28;19912;-74
2022/01/14 02:58:20;;;;;;;;;;;;;;;;;;2093432;28;19956;-75
2022/01/14 02:59:39;;;;;;;;;;;;;;;;;;2098745;28;19916;-74
2022/01/14 03:00:58;;;;;;;;;;;;;;;;;;2100186;28;20319;-75
2022/01/14 03:02:17;;;;;;;;;;;;;;;;;;2092045;28;19912;-75
2022/01/14 03:03:36;;;;;;;;;;;;;;;;;;2096505;28;20277;-74
2022/01/14 03:04:55;;;;;;;;;;;;;;;;;;2091398;28;19913;-75
2022/01/14 03:06:14;;;;;;;;;;;;;;;;;;2096142;28;19912;-75
2022/01/14 03:07:33;;;;;;;;;;;;;;;;;;2101298;28;20344;-74
2022/01/14 03:08:53;;;;;;;;;;;;;;;;;;2100095;28;19912;-75
2022/01/14 03:10:12;;;;;;;;;;;;;;;;;;2098213;28;20261;-74
2022/01/14 03:11:31;;;;;;;;;;;;;;;;;;2099085;28;19913;-74
2022/01/14 03:12:50;;;;;;;;;;;;;;;;;;2100592;28;19912;-74
2022/01/14 03:14:09;;;;;;;;;;;;;;;;;;2099466;28;19913;-74
2022/01/14 03:15:28;;;;;;;;;;;;;;;;;;2099919;28;19909;-74
2022/01/14 03:16:48;;;;;;;;;;;;;;;;;;2099752;28;19912;-74
2022/01/14 03:18:06;;;;;;;;;;;;;;;;;;2100444;28;20279;-74
2022/01/14 03:19:26;;;;;;;;;;;;;;;;;;2090538;28;19963;-74
2022/01/14 03:20:48;;;;;;;;;;;;;;;;;;2087869;28;19917;-74
2022/01/14 03:22:18;;;;;;;;;;;;;;;;;;2096666;28;19912;-74
2022/01/14 03:23:43;;;;;;;;;;;;;;;;;;2091523;28;19921;-74
2022/01/14 03:26:40;;;;;;;;;;;;;;;;;;2099618;28;19917;-73
2022/01/14 03:27:59;;;;;;;;;;;;;;;;;;2092460;28;20015;-74
2022/01/14 03:29:17;;;;;;;;;;;;;;;;;;2096403;28;19962;-73
2022/01/14 03:30:36;;;;;;;;;;;;;;;;;;2100150;28;19908;-74
2022/01/14 03:31:55;;;;;;;;;;;;;;;;;;2099428;28;19916;-75
2022/01/14 03:33:14;;;;;;;;;;;;;;;;;;2100763;28;19912;-73
2022/01/14 03:34:33;;;;;;;;;;;;;;;;;;2099682;28;20357;-73
2022/01/14 03:35:52;;;;;;;;;;;;;;;;;;2098176;28;19912;-72
2022/01/14 03:37:11;;;;;;;;;;;;;;;;;;2100328;28;20294;-74
2022/01/14 03:38:30;;;;;;;;;;;;;;;;;;2100909;28;19928;-72
2022/01/14 03:39:49;;;;;;;;;;;;;;;;;;2099852;28;19912;-72
2022/01/14 03:41:08;;;;;;;;;;;;;;;;;;2096206;28;19909;-72
2022/01/14 03:42:27;;;;;;;;;;;;;;;;;;2099792;28;20293;-72
2022/01/14 03:43:46;;;;;;;;;;;;;;;;;;2100667;28;19912;-72
2022/01/14 03:45:05;;;;;;;;;;;;;;;;;;2099315;28;20509;-73
2022/01/14 03:46:24;;;;;;;;;;;;;;;;;;2091858;28;19987;-73
2022/01/14 03:47:42;;;;;;;;;;;;;;;;;;2097423;28;19913;-74
2022/01/14 03:49:01;;;;;;;;;;;;;;;;;;2091528;28;20386;-73
2022/01/14 03:50:20;;;;;;;;;;;;;;;;;;2096737;28;19913;-73
2022/01/14 03:51:41;;;;;;;;;;;;;;;;;;2091833;28;20297;-74
2022/01/14 03:53:00;;;;;;;;;;;;;;;;;;2095652;28;19916;-74
2022/01/14 03:54:18;;;;;;;;;;;;;;;;;;2099021;28;19948;-73
2022/01/14 03:55:37;;;;;;;;;;;;;;;;;;2100706;28;19909;-74
2022/01/14 03:56:56;;;;;;;;;;;;;;;;;;2092744;28;19938;-74
2022/01/14 03:58:15;;;;;;;;;;;;;;;;;;2094837;28;19916;-73
2022/01/14 03:59:34;;;;;;;;;;;;;;;;;;2100591;28;19920;-73
2022/01/14 04:00:53;;;;;;;;;;;;;;;;;;2099950;28;19908;-73
2022/01/14 04:02:12;;;;;;;;;;;;;;;;;;2093237;28;20015;-73
2022/01/14 04:03:30;;;;;;;;;;;;;;;;;;2096209;28;19920;-73
2022/01/14 04:04:49;;;;;;;;;;;;;;;;;;2099880;28;20003;-72
2022/01/14 04:06:10;;;;;;;;;;;;;;;;;;2098446;28;20011;-73
2022/01/14 04:07:29;;;;;;;;;;;;;;;;;;2098647;28;19916;-74
2022/01/14 04:08:48;;;;;;;;;;;;;;;;;;2101114;28;20047;-73
2022/01/14 04:10:10;;;;;;;;;;;;;;;;;;2100561;28;19913;-73
2022/01/14 04:11:30;;;;;;;;;;;;;;;;;;2091697;28;19908;-72
2022/01/14 04:15:45;;;;;;;;;;;;;;;;;;2097244;28;19913;-73
2022/01/14 04:17:04;;;;;;;;;;;;;;;;;;2096720;28;20575;-73
2022/01/14 04:18:22;;;;;;;;;;;;;;;;;;2100436;28;19912;-73
2022/01/14 04:19:41;;;;;;;;;;;;;;;;;;2101103;28;20007;-74
2022/01/14 04:21:00;;;;;;;;;;;;;;;;;;2101659;28;20488;-73
2022/01/14 04:22:19;;;;;;;;;;;;;;;;;;2102664;28;19912;-75
2022/01/14 04:23:38;;;;;;;;;;;;;;;;;;2101254;28;19912;-75
2022/01/14 04:24:57;;;;;;;;;;;;;;;;;;2100343;28;19909;-75
2022/01/14 04:26:17;;;;;;;;;;;;;;;;;;2101816;28;19912;-74
2022/01/14 04:27:36;;;;;;;;;;;;;;;;;;2091984;28;19993;-74
2022/01/14 04:28:55;;;;;;;;;;;;;;;;;;2089002;28;19916;-74
2022/01/14 04:30:13;;;;;;;;;;;;;;;;;;2097288;28;19916;-74
2022/01/14 04:31:32;;;;;;;;;;;;;;;;;;2100778;28;19917;-75
2022/01/14 04:32:51;;;;;;;;;;;;;;;;;;2101202;28;20402;-74
2022/01/14 04:34:10;;;;;;;;;;;;;;;;;;2092962;28;19917;-75
2022/01/14 04:35:29;;;;;;;;;;;;;;;;;;2097922;28;19908;-75
2022/01/14 04:36:48;;;;;;;;;;;;;;;;;;2100806;28;19943;-74
2022/01/14 04:38:07;;;;;;;;;;;;;;;;;;2090384;28;19912;-76
2022/01/14 04:39:26;;;;;;;;;;;;;;;;;;2097555;28;19935;-75
2022/01/14 04:40:44;;;;;;;;;;;;;;;;;;2101908;28;20266;-75
2022/01/14 04:42:04;;;;;;;;;;;;;;;;;;2101484;28;20356;-75
2022/01/14 04:43:23;;;;;;;;;;;;;;;;;;2100620;28;19920;-75
2022/01/14 04:44:42;;;;;;;;;;;;;;;;;;2101141;28;19912;-75
2022/01/14 04:47:31;;;;;;;;;;;;;;;;;;2101476;28;20011;-74
2022/01/14 04:48:50;;;;;;;;;;;;;;;;;;2090582;28;19920;-75
2022/01/14 04:50:08;;;;;;;;;;;;;;;;;;2098061;28;20350;-75
2022/01/14 04:51:27;;;;;;;;;;;;;;;;;;2102088;28;19908;-75
2022/01/14 04:52:47;;;;;;;;;;;;;;;;;;2101982;28;19912;-75
2022/01/14 04:54:06;;;;;;;;;;;;;;;;;;2099592;28;19912;-75
2022/01/14 04:55:25;;;;;;;;;;;;;;;;;;2102243;28;20227;-75
2022/01/14 04:56:44;;;;;;;;;;;;;;;;;;2091980;28;20293;-75
2022/01/14 04:58:03;;;;;;;;;;;;;;;;;;2097261;28;19916;-75
2022/01/14 04:59:23;;;;;;;;;;;;;;;;;;2101019;28;19912;-76
2022/01/14 05:00:41;;;;;;;;;;;;;;;;;;2094013;28;19917;-75
2022/01/14 05:02:00;;;;;;;;;;;;;;;;;;2098116;28;19919;-74
2022/01/14 05:03:19;;;;;;;;;;;;;;;;;;2099720;28;20278;-75
2022/01/14 05:04:38;;;;;;;;;;;;;;;;;;2101231;28;20281;-76
2022/01/14 05:06:00;;;;;;;;;;;;;;;;;;2101646;28;19908;-75
2022/01/14 05:07:24;;;;;;;;;;;;;;;;;;2098705;28;19912;-76
2022/01/14 05:08:43;;;;;;;;;;;;;;;;;;2091678;28;19912;-76
2022/01/14 05:11:24;;;;;;;;;;;;;;;;;;2099362;28;19938;-76
2022/01/14 05:12:43;;;;;;;;;;;;;;;;;;2101678;28;19916;-75
2022/01/14 05:14:02;;;;;;;;;;;;;;;;;;2098238;28;20461;-74
2022/01/14 05:15:21;;;;;;;;;;;;;;;;;;2101363;28;19912;-77
2022/01/14 05:16:40;;;;;;;;;;;;;;;;;;2100747;28;19912;-73
2022/01/14 05:17:59;;;;;;;;;;;;;;;;;;2099534;28;19924;-77
2022/01/14 05:19:18;;;;;;;;;;;;;;;;;;2091981;28;19917;-75
2022/01/14 05:20:37;;;;;;;;;;;;;;;;;;2099190;28;20011;-75
2022/01/14 05:21:56;;;;;;;;;;;;;;;;;;2101717;28;20329;-75
2022/01/14 05:23:15;;;;;;;;;;;;;;;;;;2096396;28;19975;-74
2022/01/14 05:24:34;;;;;;;;;;;;;;;;;;2098619;28;19912;-73
2022/01/14 05:25:54;;;;;;;;;;;;;;;;;;2101476;28;19916;-75
2022/01/14 05:27:13;;;;;;;;;;;;;;;;;;2089281;28;19912;-73
2022/01/14 05:28:31;;;;;;;;;;;;;;;;;;2084906;28;20003;-76
2022/01/14 05:29:50;;;;;;;;;;;;;;;;;;2094159;28;19920;-76
2022/01/14 05:31:09;;;;;;;;;;;;;;;;;;2102403;28;19913;-75
2022/01/14 05:32:28;;;;;;;;;;;;;;;;;;2099600;28;20370;-76
2022/01/14 05:33:47;;;;;;;;;;;;;;;;;;2092422;28;20375;-75
2022/01/14 05:35:06;;;;;;;;;;;;;;;;;;2096296;28;19916;-75
2022/01/14 05:36:26;;;;;;;;;;;;;;;;;;2092199;28;20333;-75
2022/01/14 05:37:45;;;;;;;;;;;;;;;;;;2097391;28;20374;-73
2022/01/14 05:39:04;;;;;;;;;;;;;;;;;;2100153;28;20358;-75
2022/01/14 05:40:27;;;;;;;;;;;;;;;;;;2091064;28;19912;-75
2022/01/14 05:41:46;;;;;;;;;;;;;;;;;;2089358;28;19912;-74
2022/01/14 05:43:05;;;;;;;;;;;;;;;;;;2087802;28;19913;-75
2022/01/14 05:44:24;;;;;;;;;;;;;;;;;;2087445;28;20631;-74
2022/01/14 05:45:43;;;;;;;;;;;;;;;;;;2097485;28;19916;-75
2022/01/14 05:47:02;;;;;;;;;;;;;;;;;;2101445;28;20285;-75
2022/01/14 05:48:21;;;;;;;;;;;;;;;;;;2090305;28;19917;-75
2022/01/14 05:49:39;;;;;;;;;;;;;;;;;;2086913;28;19908;-75
2022/01/14 05:50:58;;;;;;;;;;;;;;;;;;2096988;28;19920;-76
2022/01/14 05:52:19;;;;;;;;;;;;;;;;;;2100237;28;19912;-76
2022/01/14 05:53:38;;;;;;;;;;;;;;;;;;2101639;28;19912;-75
2022/01/14 05:54:57;;;;;;;;;;;;;;;;;;2089420;28;19917;-76
2022/01/14 05:56:16;;;;;;;;;;;;;;;;;;2096402;28;19924;-76
2022/01/14 05:57:37;;;;;;;;;;;;;;;;;;2099117;28;19955;-76
2022/01/14 05:58:55;;;;;;;;;;;;;;;;;;2092117;28;19920;-75
2022/01/14 06:00:14;;;;;;;;;;;;;;;;;;2084606;28;19944;-75
2022/01/14 06:01:33;;;;;;;;;;;;;;;;;;2098576;28;19912;-75
2022/01/14 06:02:52;;;;;;;;;;;;;;;;;;2101247;28;19912;-75
2022/01/14 06:04:11;;;;;;;;;;;;;;;;;;2100900;28;19916;-75
2022/01/14 06:05:30;;;;;;;;;;;;;;;;;;2091761;28;19912;-75
2022/01/14 06:06:49;;;;;;;;;;;;;;;;;;2097672;28;19912;-75
2022/01/14 06:08:08;;;;;;;;;;;;;;;;;;2099920;28;19916;-75
2022/01/14 06:09:27;;;;;;;;;;;;;;;;;;2098216;28;19913;-76
2022/01/14 06:10:46;;;;;;;;;;;;;;;;;;2098129;28;20273;-75
2022/01/14 06:12:05;;;;;;;;;;;;;;;;;;2093094;28;20409;-75
2022/01/14 06:13:23;;;;;;;;;;;;;;;;;;2094787;28;19952;-76
2022/01/14 06:14:42;;;;;;;;;;;;;;;;;;2098280;28;19974;-75
2022/01/14 06:16:01;;;;;;;;;;;;;;;;;;2100592;28;19912;-76
2022/01/14 06:17:20;;;;;;;;;;;;;;;;;;2091399;28;19924;-75
2022/01/14 06:18:39;;;;;;;;;;;;;;;;;;2082545;28;19920;-75
2022/01/14 06:19:58;;;;;;;;;;;;;;;;;;2095758;28;19920;-76
2022/01/14 06:21:17;;;;;;;;;;;;;;;;;;2099858;28;20687;-75
2022/01/14 06:22:36;;;;;;;;;;;;;;;;;;2101785;28;19908;-75
2022/01/14 06:23:55;;;;;;;;;;;;;;;;;;2097977;28;19912;-75
2022/01/14 06:25:14;;;;;;;;;;;;;;;;;;2085452;28;19917;-75
2022/01/14 06:26:33;;;;;;;;;;;;;;;;;;2095530;28;19952;-75
2022/01/14 06:27:52;;;;;;;;;;;;;;;;;;2091039;28;20322;-75
2022/01/14 06:29:11;;;;;;;;;;;;;;;;;;2087636;28;20342;-76
2022/01/14 06:30:29;;;;;;;;;;;;;;;;;;2085893;28;19913;-73
2022/01/14 06:31:48;;;;;;;;;;;;;;;;;;2090300;28;20294;-74
2022/01/14 06:33:07;;;;;;;;;;;;;;;;;;2089604;28;20724;-74
2022/01/14 06:34:26;;;;;;;;;;;;;;;;;;2090225;28;19913;-75
2022/01/14 06:35:45;;;;;;;;;;;;;;;;;;2094285;28;19912;-75
2022/01/14 06:37:03;;;;;;;;;;;;;;;;;;2099563;28;19963;-74
2022/01/14 06:38:22;;;;;;;;;;;;;;;;;;2099785;28;20366;-74
2022/01/14 06:39:41;;;;;;;;;;;;;;;;;;2100660;28;19912;-74
2022/01/14 06:41:01;;;;;;;;;;;;;;;;;;2091327;28;19920;-73
2022/01/14 06:42:20;;;;;;;;;;;;;;;;;;2095865;28;19960;-74
2022/01/14 06:43:39;;;;;;;;;;;;;;;;;;2091747;28;20432;-74
2022/01/14 06:44:58;;;;;;;;;;;;;;;;;;2096605;28;19943;-73
2022/01/14 06:46:17;;;;;;;;;;;;;;;;;;2097221;28;20335;-75
2022/01/14 06:47:36;;;;;;;;;;;;;;;;;;2091602;28;19948;-75
2022/01/14 06:48:55;;;;;;;;;;;;;;;;;;2095992;28;19912;-75
2022/01/14 06:50:14;;;;;;;;;;;;;;;;;;2089437;28;19908;-75
2022/01/14 06:51:33;;;;;;;;;;;;;;;;;;2095162;28;19908;-75
2022/01/14 06:52:52;;;;;;;;;;;;;;;;;;2090469;28;20406;-75
2022/01/14 06:54:10;;;;;;;;;;;;;;;;;;2093442;28;20038;-75
2022/01/14 06:55:29;;;;;;;;;;;;;;;;;;2089973;28;19917;-76
2022/01/14 06:56:48;;;;;;;;;;;;;;;;;;2093803;28;20287;-76
2022/01/14 06:58:07;;;;;;;;;;;;;;;;;;2100065;28;19912;-75
2022/01/14 06:59:26;;;;;;;;;;;;;;;;;;2098969;28;20461;-76
2022/01/14 07:00:45;;;;;;;;;;;;;;;;;;2090093;28;20003;-76
2022/01/14 07:02:04;;;;;;;;;;;;;;;;;;2091881;28;19922;-76
2022/01/14 07:03:23;;;;;;;;;;;;;;;;;;2091963;28;19920;-76
2022/01/14 07:04:42;;;;;;;;;;;;;;;;;;2086463;28;19920;-75
2022/01/14 07:06:00;;;;;;;;;;;;;;;;;;2085938;28;19922;-75
2022/01/14 07:07:19;;;;;;;;;;;;;;;;;;2087966;28;19916;-75
2022/01/14 07:08:38;;;;;;;;;;;;;;;;;;2087838;28;19913;-76
2022/01/14 07:09:57;;;;;;;;;;;;;;;;;;2096745;28;20373;-76
2022/01/14 07:11:16;;;;;;;;;;;;;;;;;;2089434;28;19917;-76
2022/01/14 07:12:36;;;;;;;;;;;;;;;;;;2086106;28;19913;-76
2022/01/14 07:13:55;;;;;;;;;;;;;;;;;;2099106;28;19916;-74
2022/01/14 07:15:14;;;;;;;;;;;;;;;;;;2090118;28;20297;-76
2022/01/14 07:16:33;;;;;;;;;;;;;;;;;;2087404;28;19961;-76
2022/01/14 07:17:52;;;;;;;;;;;;;;;;;;2087208;28;20330;-76
2022/01/14 07:19:12;;;;;;;;;;;;;;;;;;2088295;28;19916;-76
2022/01/14 07:20:31;;;;;;;;;;;;;;;;;;2086547;28;20355;-76
2022/01/14 07:21:50;;;;;;;;;;;;;;;;;;2096995;28;19917;-76
2022/01/14 07:23:09;;;;;;;;;;;;;;;;;;2100526;28;20003;-76
2022/01/14 07:24:28;;;;;;;;;;;;;;;;;;2091241;28;19909;-75
2022/01/14 07:25:46;;;;;;;;;;;;;;;;;;2093893;28;19912;-76
2022/01/14 07:27:05;;;;;;;;;;;;;;;;;;2098439;28;20282;-76
2022/01/14 07:28:24;;;;;;;;;;;;;;;;;;2090776;28;19984;-75
2022/01/14 07:29:43;;;;;;;;;;;;;;;;;;2097452;28;19969;-76
2022/01/14 07:31:02;;;;;;;;;;;;;;;;;;2093513;28;19919;-75
2022/01/14 07:32:21;;;;;;;;;;;;;;;;;;2100023;28;20242;-75
2022/01/14 07:33:40;;;;;;;;;;;;;;;;;;2099849;28;20029;-75
2022/01/14 07:34:59;;;;;;;;;;;;;;;;;;2092355;28;19917;-76
2022/01/14 07:36:17;;;;;;;;;;;;;;;;;;2086732;28;19921;-75
2022/01/14 07:37:36;;;;;;;;;;;;;;;;;;2095367;28;19909;-75
2022/01/14 07:38:55;;;;;;;;;;;;;;;;;;2101259;28;19940;-75
2022/01/14 07:40:14;;;;;;;;;;;;;;;;;;2099819;28;20285;-75
2022/01/14 07:41:33;;;;;;;;;;;;;;;;;;2090055;28;19917;-75
2022/01/14 07:42:52;;;;;;;;;;;;;;;;;;2095583;28;19912;-75
2022/01/14 07:44:11;;;;;;;;;;;;;;;;;;2100774;28;19908;-75
2022/01/14 07:45:30;;;;;;;;;;;;;;;;;;2093398;28;20354;-72
2022/01/14 07:46:49;;;;;;;;;;;;;;;;;;2095790;28;19920;-72
2022/01/14 07:48:08;;;;;;;;;;;;;;;;;;2099470;28;19909;-70
2022/01/14 07:49:27;;;;;;;;;;;;;;;;;;2099557;28;19912;-71
2022/01/14 07:50:46;;;;;;;;;;;;;;;;;;2100318;28;19916;-70
2022/01/14 07:52:05;;;;;;;;;;;;;;;;;;2090765;28;19920;-70
2022/01/14 07:53:24;;;;;;;;;;;;;;;;;;2098032;28;20366;-69
2022/01/14 07:54:43;;;;;;;;;;;;;;;;;;2101127;28;19908;-69
2022/01/14 07:56:05;;;;;;;;;;;;;;;;;;2101933;28;19920;-69
2022/01/14 07:57:23;;;;;;;;;;;;;;;;;;2101159;28;19912;-71
2022/01/14 07:58:42;;;;;;;;;;;;;;;;;;2103155;28;19960;-68
2022/01/14 08:00:03;;;;;;;;;;;;;;;;;;2102798;28;19912;-70
2022/01/14 08:01:22;;;;;;;;;;;;;;;;;;2100428;28;19920;-69
2022/01/14 08:02:41;;;;;;;;;;;;;;;;;;2101205;28;20393;-69
2022/01/14 08:04:00;;;;;;;;;;;;;;;;;;2102507;28;19912;-69
2022/01/14 08:05:19;;;;;;;;;;;;;;;;;;2102181;28;20273;-69
2022/01/14 08:06:44;;;;;;;;;;;;;;;;;;2099549;28;20274;-70
2022/01/14 08:08:05;;;;;;;;;;;;;;;;;;2101848;28;19924;-71
2022/01/14 08:09:23;;;;;;;;;;;;;;;;;;2102600;28;20358;-69
2022/01/14 08:10:42;;;;;;;;;;;;;;;;;;2100689;28;20401;-68
2022/01/14 08:12:01;;;;;;;;;;;;;;;;;;2098036;28;19967;-69
2022/01/14 08:13:20;;;;;;;;;;;;;;;;;;2091465;28;19959;-70
2022/01/14 08:14:39;;;;;;;;;;;;;;;;;;2099233;28;19909;-71
2022/01/14 08:15:59;;;;;;;;;;;;;;;;;;2100709;28;19964;-71
2022/01/14 08:17:20;;;;;;;;;;;;;;;;;;2089874;28;19920;-70
2022/01/14 08:18:38;;;;;;;;;;;;;;;;;;2097449;28;19909;-71
2022/01/14 08:19:57;;;;;;;;;;;;;;;;;;2100060;28;19916;-70
2022/01/14 08:21:16;;;;;;;;;;;;;;;;;;2097230;28;20555;-70
2022/01/14 08:22:35;;;;;;;;;;;;;;;;;;2091667;28;19920;-71
2022/01/14 08:23:54;;;;;;;;;;;;;;;;;;2096397;28;19909;-72
2022/01/14 08:25:13;;;;;;;;;;;;;;;;;;2092607;28;19913;-73
2022/01/14 08:26:32;;;;;;;;;;;;;;;;;;2097789;28;19999;-70
2022/01/14 08:27:51;;;;;;;;;;;;;;;;;;2100613;28;19913;-70
2022/01/14 08:29:10;;;;;;;;;;;;;;;;;;2101686;28;20278;-72
2022/01/14 08:30:28;;;;;;;;;;;;;;;;;;2101690;28;20337;-71
2022/01/14 08:31:48;;;;;;;;;;;;;;;;;;2098871;28;19920;-71
2022/01/14 08:33:07;;;;;;;;;;;;;;;;;;2099998;28;19913;-72
2022/01/14 08:34:27;;;;;;;;;;;;;;;;;;2091463;28;19912;-71
2022/01/14 08:35:46;;;;;;;;;;;;;;;;;;2090692;28;20294;-70
2022/01/14 08:37:05;;;;;;;;;;;;;;;;;;2087254;28;19916;-70
2022/01/14 08:38:24;;;;;;;;;;;;;;;;;;2090653;28;20351;-70
2022/01/14 08:39:42;;;;;;;;;;;;;;;;;;2098137;28;20369;-70
2022/01/14 08:41:01;;;;;;;;;;;;;;;;;;2100112;28;19908;-70
2022/01/14 08:42:20;;;;;;;;;;;;;;;;;;2099812;28;19967;-71
2022/01/14 08:43:39;;;;;;;;;;;;;;;;;;2100231;28;19909;-70
2022/01/14 08:44:58;;;;;;;;;;;;;;;;;;2101036;28;19909;-70
2022/01/14 08:46:17;;;;;;;;;;;;;;;;;;2100353;28;20383;-70
2022/01/14 08:47:36;;;;;;;;;;;;;;;;;;2100292;28;19917;-70
2022/01/14 08:48:56;;;;;;;;;;;;;;;;;;2097937;28;19909;-71
2022/01/14 08:50:15;;;;;;;;;;;;;;;;;;2101169;28;19916;-70
2022/01/14 08:51:34;;;;;;;;;;;;;;;;;;2093272;28;20282;-70
2022/01/14 08:52:53;;;;;;;;;;;;;;;;;;2096709;28;20015;-70
2022/01/14 08:54:12;;;;;;;;;;;;;;;;;;2099985;28;19916;-70
2022/01/14 08:55:31;;;;;;;;;;;;;;;;;;2102126;28;20390;-71
2022/01/14 08:56:50;;;;;;;;;;;;;;;;;;2101771;28;19912;-71
2022/01/14 08:58:09;;;;;;;;;;;;;;;;;;2090804;28;20034;-71
2022/01/14 08:59:27;;;;;;;;;;;;;;;;;;2097353;28;19986;-71
2022/01/14 09:00:49;;;;;;;;;;;;;;;;;;2100288;28;19994;-71
2022/01/14 09:02:08;;;;;;;;;;;;;;;;;;2100569;28;19916;-71
2022/01/14 09:03:27;;;;;;;;;;;;;;;;;;2100135;28;19916;-69
2022/01/14 09:04:46;;;;;;;;;;;;;;;;;;2089663;28;19917;-69
2022/01/14 09:06:04;;;;;;;;;;;;;;;;;;2098501;28;19912;-69
2022/01/14 09:07:24;;;;;;;;;;;;;;;;;;2095619;28;19920;-71
2022/01/14 09:08:43;;;;;;;;;;;;;;;;;;2099418;28;19912;-72
2022/01/14 09:10:02;;;;;;;;;;;;;;;;;;2100534;28;20270;-71
2022/01/14 09:11:21;;;;;;;;;;;;;;;;;;2100708;28;20358;-72
2022/01/14 09:12:40;;;;;;;;;;;;;;;;;;2099464;28;19920;-72
2022/01/14 09:13:59;;;;;;;;;;;;;;;;;;2092186;28;19908;-72
2022/01/14 09:15:18;;;;;;;;;;;;;;;;;;2097550;28;19916;-72
2022/01/14 09:16:37;;;;;;;;;;;;;;;;;;2092697;28;20278;-71
2022/01/14 09:17:56;;;;;;;;;;;;;;;;;;2095585;28;19924;-71
2022/01/14 09:19:14;;;;;;;;;;;;;;;;;;2099941;28;19908;-71
2022/01/14 09:20:34;;;;;;;;;;;;;;;;;;2101862;28;19912;-71
2022/01/14 09:21:53;;;;;;;;;;;;;;;;;;2100607;28;19912;-72
2022/01/14 09:23:17;;;;;;;;;;;;;;;;;;2098552;28;19920;-71
2022/01/14 09:24:35;;;;;;;;;;;;;;;;;;2091758;28;19999;-71
2022/01/14 09:25:54;;;;;;;;;;;;;;;;;;2091085;28;19913;-71
2022/01/14 09:27:13;;;;;;;;;;;;;;;;;;2097533;28;19964;-72